Harrisburg, PA (17123)

1:03 AM EST on December 29, 2014 (GMT -0500)
Bellevue Park | Change Station
CLOSE
Current Station
Personal Weather Station
Location: Harrisburg, PA
Elevation: 498 ft
Nearby Weather Stations

Elev 498 ft 40.27 °N, 76.85 °W | Updated 12 seconds ago

Mostly Cloudy
Mostly Cloudy
40.3 °F
Feels Like 40 °F
N
1.0
Wind Variable Wind from NE
Gusts 2.0 mph

Today
High -- | Low -- °F
--% Chance of Precip.
Yesterday
High -- | Low -- °F
Precip. -- in
7:29 AM 4:49 PM
First Quarter, 55% visible
Pressure 30.14 in
Visibility 10.0 miles
Clouds Few 4000 ft
Overcast 16000 ft
Windchill 40 °F
Dew Point 29 °F
Humidity 64%
Rainfall 0.00 in
Snow Depth Not available.
UV 0 out of 12
Pollen .10 out of 12
Air Quality Not available.
Flu Activity Not available.
METAR KMDT 290556Z 33009KT 10SM FEW040 OVC160 05/M03 A3012 RMK AO2 SLP204 T00501028 10072 20050 51011

More Conditions Fewer Conditions

Pressure 30.14 in
Visibility 10.0 miles
Clouds Few 4000 ft
Overcast 16000 ft
Windchill 40 °F
Dew Point 29 °F
Humidity 64%
Rainfall 0.00 in
Snow Depth Not available.
UV 0 out of 12
Pollen .10 out of 12
Air Quality Not available.
Flu Activity Not available.
METAR KMDT 290556Z 33009KT 10SM FEW040 OVC160 05/M03 A3012 RMK AO2 SLP204 T00501028 10072 20050 51011

More Conditions Fewer Conditions

10-Day Weather Forecast

Almanac

Astronomy

Dec. 29, 2014 Rise Set
Actual Time
Civil Twilight
Nautical Twilight
Astronomical Twilight
Moon
Length of Visible Light
Length of Day
Tomorrow will be .
, % of the Moon is Illuminated

Today's Extremes

State Highs State Lows

Community

WunderPhotos

Upload Photos

1,781,544 photos uploaded!

WunderBlogs® & News

Nearby

Air Quality

  Air Quality AQ Index Pollutant
Not available.

Snow Depth

Station Depth Elevation

Earthquake Activity

City Distance Mag. Time & Date
Minimum magnitude displayed is 2.5.

Coastal Water Temperatures

Place Temperature

Nearby Weather Stations